createdAt,value
2019-03-12T00:00:04.305Z,69.62
2019-03-12T00:10:02.964Z,70.13
2019-03-12T00:20:03.542Z,71.03
2019-03-12T00:30:03.912Z,69.66
2019-03-12T00:40:02.853Z,69.74
2019-03-12T00:50:02.617Z,70.00
2019-03-12T01:00:04.077Z,69.39
2019-03-12T01:10:02.925Z,70.20
2019-03-12T01:20:03.060Z,72.45
2019-03-12T01:30:03.874Z,74.43
2019-03-12T01:40:03.073Z,74.57
2019-03-12T01:50:03.837Z,73.52
2019-03-12T02:00:03.567Z,74.53
2019-03-12T02:10:03.113Z,73.94
2019-03-12T02:20:03.572Z,72.68
2019-03-12T02:30:04.236Z,71.90
2019-03-12T02:40:03.275Z,72.34
2019-03-12T02:50:04.106Z,71.51
2019-03-12T03:00:03.829Z,72.06
2019-03-12T03:10:02.997Z,71.98
2019-03-12T03:20:02.973Z,72.32
2019-03-12T03:30:03.647Z,72.52
2019-03-12T03:40:03.325Z,73.04
2019-03-12T03:50:03.496Z,73.12
2019-03-12T04:00:03.082Z,73.37
2019-03-12T04:10:03.323Z,72.99
2019-03-12T04:20:02.491Z,71.98
2019-03-12T04:30:03.017Z,72.38
2019-03-12T04:40:02.646Z,71.79
2019-03-12T04:50:03.313Z,71.77
2019-03-12T05:00:04.114Z,71.01
2019-03-12T05:10:03.797Z,71.25
2019-03-12T05:20:03.670Z,71.21
2019-03-12T05:30:03.705Z,70.65
2019-03-12T05:40:03.431Z,70.81
2019-03-12T05:50:02.809Z,70.53
2019-03-12T06:00:03.235Z,70.57
2019-03-12T06:10:02.502Z,70.26
2019-03-12T06:20:02.687Z,70.74
2019-03-12T06:30:03.934Z,69.85
2019-03-12T06:40:02.877Z,69.56
2019-03-12T06:50:03.552Z,69.08
2019-03-12T07:00:04.203Z,68.79
2019-03-12T07:10:02.832Z,68.67
2019-03-12T07:20:02.654Z,67.08
2019-03-12T07:30:04.132Z,67.85
2019-03-12T07:40:03.755Z,65.73
2019-03-12T07:50:03.437Z,64.68
2019-03-12T08:00:03.732Z,62.74
2019-03-12T08:10:03.355Z,60.76
2019-03-12T08:20:03.232Z,58.71
2019-03-12T08:30:04.319Z,58.04
2019-03-12T08:40:02.590Z,55.79
2019-03-12T08:50:03.814Z,52.47
2019-03-12T09:00:05.209Z,48.89
2019-03-12T09:10:02.764Z,50.79
2019-03-12T09:20:02.956Z,47.92
2019-03-12T09:30:03.777Z,49.65
2019-03-12T09:40:02.908Z,47.66
2019-03-12T09:50:03.110Z,50.22
2019-03-12T10:00:16.872Z,50.49
2019-03-12T10:10:02.838Z,50.76
2019-03-12T10:20:02.857Z,51.05
2019-03-12T10:30:03.298Z,49.91
2019-03-12T10:40:03.039Z,46.51
2019-03-12T10:50:02.984Z,43.08
2019-03-12T11:00:03.205Z,40.57
2019-03-12T11:10:02.906Z,41.95
2019-03-12T11:20:02.574Z,40.29
2019-03-12T11:30:04.556Z,36.85
2019-03-12T11:40:03.316Z,40.00
2019-03-12T11:50:03.381Z,37.44
2019-03-12T12:00:03.126Z,37.99
2019-03-12T12:10:03.251Z,37.22
2019-03-12T12:20:02.677Z,36.80
2019-03-12T12:30:04.042Z,34.98
2019-03-12T12:40:03.497Z,33.97
2019-03-12T12:50:04.732Z,33.11
2019-03-12T13:00:03.310Z,34.09
2019-03-12T13:10:03.083Z,33.12
2019-03-12T13:20:03.167Z,33.71
2019-03-12T13:30:03.893Z,32.56
2019-03-12T13:40:02.932Z,33.10
2019-03-12T13:50:03.097Z,32.77
2019-03-12T14:00:03.831Z,32.31
2019-03-12T14:10:02.785Z,31.33
2019-03-12T14:20:03.026Z,32.96
2019-03-12T14:30:03.767Z,31.59
2019-03-12T14:40:02.751Z,29.10
2019-03-12T14:50:02.958Z,29.83
2019-03-12T15:00:03.558Z,28.27
2019-03-12T15:10:03.426Z,28.16
2019-03-12T15:20:03.206Z,28.50
2019-03-12T15:30:04.087Z,27.62
2019-03-12T15:40:02.727Z,29.09
2019-03-12T15:50:03.505Z,30.51
2019-03-12T16:00:03.709Z,31.94
2019-03-12T16:10:03.401Z,31.04
2019-03-12T16:20:02.796Z,32.11
2019-03-12T16:30:03.341Z,35.71
2019-03-12T16:40:03.318Z,36.02
2019-03-12T16:50:03.196Z,37.34
2019-03-12T17:00:08.846Z,41.63
2019-03-12T17:10:03.042Z,43.60
2019-03-12T17:20:03.252Z,44.70
2019-03-12T17:30:03.552Z,45.87
2019-03-12T17:40:03.282Z,47.06
2019-03-12T17:50:03.115Z,47.00
2019-03-12T18:00:03.453Z,48.02
2019-03-12T18:10:03.382Z,48.78
2019-03-12T18:20:02.683Z,48.87
2019-03-12T18:30:04.436Z,49.32
2019-03-12T18:40:02.945Z,49.51
2019-03-12T18:50:02.978Z,49.63
2019-03-12T19:00:03.409Z,48.71
2019-03-12T19:10:03.023Z,49.28
2019-03-12T19:20:02.548Z,48.79
2019-03-12T19:30:04.332Z,48.25
2019-03-12T19:40:02.859Z,49.63
2019-03-12T19:50:03.805Z,49.06
2019-03-12T20:00:03.485Z,49.21
2019-03-12T20:10:02.973Z,48.20
2019-03-12T20:20:03.131Z,48.32
2019-03-12T20:30:03.746Z,47.31
2019-03-12T20:40:03.056Z,47.13
2019-03-12T20:50:03.576Z,47.27
2019-03-12T21:00:02.999Z,49.32
2019-03-12T21:10:03.049Z,50.80
2019-03-12T21:20:03.385Z,51.68
2019-03-12T21:30:03.824Z,51.86
2019-03-12T21:40:02.559Z,50.93
2019-03-12T21:50:03.633Z,50.33
2019-03-12T22:00:03.429Z,49.53
2019-03-12T22:10:03.530Z,48.67
2019-03-12T22:20:03.630Z,48.85
2019-03-12T22:30:04.323Z,49.61
2019-03-12T22:40:02.947Z,49.19
2019-03-12T22:50:02.685Z,48.43
2019-03-12T23:00:03.930Z,48.00
2019-03-12T23:10:02.723Z,49.07
2019-03-12T23:20:02.559Z,50.01
2019-03-12T23:30:03.757Z,50.26
2019-03-12T23:40:03.415Z,49.71
2019-03-12T23:50:02.868Z,49.32
